Time;durP1;ratioP1;P1;durP2;ratioP2;P2;SDS_P1;SDS_P2;PMS_P1;PMS_P2;Temp;Humidity;BMP_temperature;BMP_pressure;BME280_temperature;BME280_humidity;BME280_pressure;Samples;Min_cycle;Max_cycle;Signal;HPM_P1;HPM_P2
2021/06/03 00:01:06;;;;;;;1999.90;999.90;;;19.20;99.90;;;;;;5038366;28;20202;-77
2021/06/03 00:03:35;;;;;;;1999.90;999.90;;;19.20;99.90;;;;;;5038643;28;20174;-77
2021/06/03 00:06:04;;;;;;;1999.90;999.90;;;19.20;99.90;;;;;;5038554;28;20210;-77
2021/06/03 00:08:30;;;;;;;1999.90;999.90;;;19.20;99.90;;;;;;5038150;28;20724;-77
2021/06/03 00:11:03;;;;;;;1999.90;999.90;;;19.10;99.90;;;;;;5036452;28;20593;-77
2021/06/03 00:13:31;;;;;;;1999.90;999.90;;;19.10;99.90;;;;;;5032274;28;20244;-77
2021/06/03 00:15:58;;;;;;;1999.90;999.90;;;19.10;99.90;;;;;;5027240;28;20225;-77
2021/06/03 00:18:24;;;;;;;1999.90;999.90;;;19.10;99.90;;;;;;5036126;28;20229;-77
2021/06/03 00:20:51;;;;;;;1999.90;999.90;;;19.10;99.90;;;;;;5035783;28;20218;-77
2021/06/03 00:23:16;;;;;;;1999.90;999.90;;;19.10;99.90;;;;;;5030080;28;20565;-77
2021/06/03 00:25:42;;;;;;;1999.90;999.90;;;19.10;99.90;;;;;;5036239;28;20190;-76
2021/06/03 00:28:08;;;;;;;1999.90;999.90;;;19.10;99.90;;;;;;5036058;28;20182;-76
2021/06/03 00:30:34;;;;;;;1999.90;999.90;;;19.10;99.90;;;;;;5035745;28;20626;-76
2021/06/03 00:33:00;;;;;;;1999.90;999.90;;;19.10;99.90;;;;;;5027677;28;20205;-76
2021/06/03 00:35:26;;;;;;;1999.90;999.90;;;19.10;99.90;;;;;;5035917;28;20233;-76
2021/06/03 00:37:52;;;;;;;1999.90;999.90;;;19.10;99.90;;;;;;5036007;28;20182;-76
2021/06/03 00:40:19;;;;;;;1999.90;999.90;;;19.10;99.90;;;;;;5035749;28;20178;-77
2021/06/03 00:42:45;;;;;;;1999.90;999.90;;;19.10;99.90;;;;;;5033298;28;20170;-76
2021/06/03 00:45:14;;;;;;;1999.90;999.90;;;19.10;99.90;;;;;;5035637;28;20316;-76
2021/06/03 00:47:40;;;;;;;1999.90;999.90;;;19.10;99.90;;;;;;5035494;28;20197;-76
2021/06/03 00:50:29;;;;;;;1999.90;999.90;;;19.10;99.90;;;;;;5028121;28;20181;-76
2021/06/03 00:52:55;;;;;;;1999.90;999.90;;;19.10;99.90;;;;;;5035887;28;20194;-76
2021/06/03 00:55:21;;;;;;;1999.90;999.90;;;19.10;99.90;;;;;;5035560;28;20206;-76
2021/06/03 00:57:47;;;;;;;1999.90;999.90;;;19.10;99.90;;;;;;5035116;28;20191;-76
2021/06/03 01:00:15;;;;;;;1999.90;999.90;;;19.00;99.90;;;;;;5034542;28;20588;-76
2021/06/03 01:02:42;;;;;;;1999.90;999.90;;;19.00;99.90;;;;;;5035600;28;20604;-76
2021/06/03 01:05:19;;;;;;;1999.90;999.90;;;18.90;99.90;;;;;;5037931;28;20657;-76
2021/06/03 01:07:45;;;;;;;1999.90;999.90;;;19.00;99.90;;;;;;5035521;28;20684;-77
2021/06/03 01:10:17;;;;;;;1999.90;999.90;;;19.10;99.90;;;;;;5035995;28;20249;-77
2021/06/03 01:13:01;;;;;;;1999.90;999.90;;;19.00;99.90;;;;;;5034631;28;20246;-77
2021/06/03 01:15:27;;;;;;;1999.90;999.90;;;19.00;99.90;;;;;;5035309;28;20637;-77
2021/06/03 01:17:54;;;;;;;1999.90;999.90;;;19.00;99.90;;;;;;5026885;28;20178;-77
2021/06/03 01:20:21;;;;;;;1999.90;999.90;;;18.90;99.90;;;;;;5029157;28;20257;-77
2021/06/03 01:23:11;;;;;;;1999.90;999.90;;;18.90;99.90;;;;;;5066476;22;20725;-75
2021/06/03 01:25:37;;;;;;;1999.90;999.90;;;18.90;99.90;;;;;;5022544;28;20159;-75
2021/06/03 01:28:03;;;;;;;1999.90;999.90;;;19.00;99.90;;;;;;5034759;28;20644;-75
2021/06/03 01:30:36;;;;;;;1999.90;999.90;;;19.00;99.90;;;;;;5025758;28;20202;-75
2021/06/03 01:33:13;;;;;;;1999.90;999.90;;;19.00;99.90;;;;;;5024068;28;20625;-77
2021/06/03 01:35:44;;;;;;;1999.90;999.90;;;18.90;99.90;;;;;;5014782;28;20201;-75
2021/06/03 01:38:14;;;;;;;1999.90;999.90;;;18.90;99.90;;;;;;5003776;28;20178;-75
2021/06/03 01:40:42;;;;;;;1999.90;999.90;;;18.70;99.90;;;;;;5014431;28;20221;-76
2021/06/03 01:43:09;;;;;;;1999.90;999.90;;;18.80;99.90;;;;;;5014636;28;20195;-76
2021/06/03 01:45:36;;;;;;;1999.90;999.90;;;18.80;99.90;;;;;;5010819;28;20198;-75
2021/06/03 01:48:03;;;;;;;1999.90;999.90;;;18.80;99.90;;;;;;5006265;28;20685;-76
2021/06/03 01:50:29;;;;;;;1999.90;999.90;;;18.60;99.90;;;;;;5014381;28;20179;-76
2021/06/03 01:52:56;;;;;;;1999.90;999.90;;;18.60;99.90;;;;;;5005238;28;20199;-76
2021/06/03 01:55:23;;;;;;;1999.90;999.90;;;18.50;99.90;;;;;;5014273;28;20168;-76
2021/06/03 01:57:49;;;;;;;1999.90;999.90;;;18.40;99.90;;;;;;5012934;28;20203;-75
2021/06/03 02:00:18;;;;;;;1999.90;999.90;;;18.40;99.90;;;;;;5007909;28;20171;-75
2021/06/03 02:02:43;;;;;;;1999.90;999.90;;;18.50;99.90;;;;;;5014151;28;20191;-75
2021/06/03 02:05:10;;;;;;;1999.90;999.90;;;18.40;99.90;;;;;;5014410;28;20518;-77
2021/06/03 02:07:36;;;;;;;1999.90;999.90;;;18.40;99.90;;;;;;5014480;28;20178;-75
2021/06/03 02:10:03;;;;;;;1999.90;999.90;;;18.40;99.90;;;;;;5013835;28;20179;-75
2021/06/03 02:12:34;;;;;;;1999.90;999.90;;;18.40;99.90;;;;;;5009278;28;20222;-75
2021/06/03 02:15:04;;;;;;;1999.90;999.90;;;18.30;99.90;;;;;;5014139;28;20186;-75
2021/06/03 02:17:34;;;;;;;1999.90;999.90;;;18.30;99.90;;;;;;5009334;28;20195;-76
2021/06/03 02:20:01;;;;;;;1999.90;999.90;;;18.40;99.90;;;;;;4992153;28;20180;-75
2021/06/03 02:22:28;;;;;;;1999.90;999.90;;;18.40;99.90;;;;;;4991212;28;20234;-75
2021/06/03 02:24:54;;;;;;;1999.90;999.90;;;18.30;99.90;;;;;;5011868;28;20534;-75
2021/06/03 02:27:21;;;;;;;1999.90;999.90;;;18.30;99.90;;;;;;5013165;28;20183;-75
2021/06/03 02:29:49;;;;;;;1999.90;999.90;;;18.30;99.90;;;;;;5013599;28;20553;-75
2021/06/03 02:32:16;;;;;;;1999.90;999.90;;;18.30;99.90;;;;;;5013252;28;20199;-76
2021/06/03 02:34:44;;;;;;;1999.90;999.90;;;18.30;99.90;;;;;;5004403;28;20230;-75
2021/06/03 02:37:12;;;;;;;1999.90;999.90;;;18.30;99.90;;;;;;5013704;28;20186;-75
2021/06/03 02:39:38;;;;;;;1999.90;999.90;;;18.20;99.90;;;;;;5013558;28;20517;-75
2021/06/03 02:42:11;;;;;;;1999.90;999.90;;;18.20;99.90;;;;;;5005742;28;20195;-74
2021/06/03 02:44:37;;;;;;;1999.90;999.90;;;18.20;99.90;;;;;;5012724;28;20217;-75
2021/06/03 02:47:05;;;;;;;1999.90;999.90;;;18.20;99.90;;;;;;5013663;28;20184;-75
2021/06/03 02:49:31;;;;;;;1999.90;999.90;;;18.10;99.90;;;;;;5009328;28;20210;-76
2021/06/03 02:52:01;;;;;;;1999.90;999.90;;;18.00;99.90;;;;;;5013499;28;20214;-75
2021/06/03 02:54:30;;;;;;;1999.90;999.90;;;18.00;99.90;;;;;;5013492;28;20187;-75
2021/06/03 02:56:56;;;;;;;1999.90;999.90;;;18.00;99.90;;;;;;5013333;28;20194;-75
2021/06/03 02:59:22;;;;;;;1999.90;999.90;;;18.00;99.90;;;;;;5013464;28;20534;-75
2021/06/03 03:01:48;;;;;;;1999.90;999.90;;;18.00;99.90;;;;;;5018023;28;20166;-75
2021/06/03 03:04:14;;;;;;;1999.90;999.90;;;17.90;99.90;;;;;;5023790;28;20188;-75
2021/06/03 03:06:40;;;;;;;1999.90;999.90;;;17.90;99.90;;;;;;5010231;28;20661;-75
2021/06/03 03:09:06;;;;;;;1999.90;999.90;;;17.80;99.90;;;;;;5005700;28;20229;-75
2021/06/03 03:11:32;;;;;;;1999.90;999.90;;;17.80;99.90;;;;;;5013473;28;20250;-75
2021/06/03 03:13:58;;;;;;;1999.90;999.90;;;17.80;99.90;;;;;;5004391;28;20203;-75
2021/06/03 03:16:24;;;;;;;1999.90;999.90;;;17.70;99.90;;;;;;5013140;28;20191;-75
2021/06/03 03:18:50;;;;;;;1999.90;999.90;;;;;;;;;;5013157;28;20206;-75
2021/06/03 03:21:16;;;;;;;1999.90;999.90;;;;;;;;;;5013382;28;20179;-76
2021/06/03 03:23:42;;;;;;;1999.90;999.90;;;17.70;99.90;;;;;;5016663;28;20635;-75
2021/06/03 03:26:08;;;;;;;1999.90;999.90;;;17.40;99.90;;;;;;5019721;28;20270;-75
2021/06/03 03:28:34;;;;;;;1999.90;999.90;;;17.40;99.90;;;;;;5017136;28;20175;-75
2021/06/03 03:31:00;;;;;;;1999.90;999.90;;;17.30;99.90;;;;;;5017118;28;20273;-75
2021/06/03 03:33:26;;;;;;;1999.90;999.90;;;17.30;99.90;;;;;;5016890;28;20191;-75
2021/06/03 03:35:52;;;;;;;1999.90;999.90;;;17.30;99.90;;;;;;5016870;28;20217;-75
2021/06/03 03:38:19;;;;;;;1999.90;999.90;;;17.30;99.90;;;;;;5010830;28;20650;-75
2021/06/03 03:40:45;;;;;;;1999.90;999.90;;;17.30;99.90;;;;;;5014596;28;20206;-75
2021/06/03 03:43:11;;;;;;;1999.90;999.90;;;17.20;99.90;;;;;;5014184;28;20198;-75
2021/06/03 03:45:37;;;;;;;1999.90;999.90;;;17.20;99.90;;;;;;5016609;28;20250;-75
2021/06/03 03:48:04;;;;;;;1999.90;999.90;;;17.20;99.90;;;;;;5016617;28;20250;-75
2021/06/03 03:50:32;;;;;;;1999.90;999.90;;;17.30;99.90;;;;;;5016583;28;20228;-75
2021/06/03 03:52:58;;;;;;;1999.90;999.90;;;17.30;99.90;;;;;;5016735;28;20747;-75
2021/06/03 03:55:24;;;;;;;1999.90;999.90;;;17.30;99.90;;;;;;5016480;28;20168;-75
2021/06/03 03:57:49;;;;;;;1999.90;999.90;;;17.30;99.90;;;;;;5014837;28;20191;-75
2021/06/03 04:00:21;;;;;;;1999.90;999.90;;;17.40;99.90;;;;;;5014545;28;20182;-75
2021/06/03 04:02:47;;;;;;;1999.90;999.90;;;17.50;99.90;;;;;;5008131;28;20218;-75
2021/06/03 04:05:14;;;;;;;1999.90;999.90;;;17.40;99.90;;;;;;4990798;28;20552;-77
2021/06/03 04:07:40;;;;;;;1999.90;999.90;;;17.40;99.90;;;;;;5014343;28;20167;-76
2021/06/03 04:10:09;;;;;;;1999.90;999.90;;;17.40;99.90;;;;;;5015467;28;20186;-76
2021/06/03 04:12:35;;;;;;;1999.90;999.90;;;17.50;99.90;;;;;;5015102;28;20674;-75
2021/06/03 04:15:00;;;;;;;1999.90;999.90;;;17.40;99.90;;;;;;5007956;28;20221;-75
2021/06/03 04:17:27;;;;;;;1999.90;999.90;;;17.40;99.90;;;;;;5015198;28;20566;-75
2021/06/03 04:19:53;;;;;;;1999.90;999.90;;;17.40;99.90;;;;;;5016149;28;20175;-75
2021/06/03 04:22:18;;;;;;;1999.90;999.90;;;17.40;99.90;;;;;;5015905;28;20215;-75
2021/06/03 04:24:44;;;;;;;1999.90;999.90;;;17.30;99.90;;;;;;5016099;28;20171;-75
2021/06/03 04:27:10;;;;;;;1999.90;999.90;;;17.30;99.90;;;;;;5009551;28;20181;-76
2021/06/03 04:29:36;;;;;;;1999.90;999.90;;;17.30;99.90;;;;;;5015941;28;20179;-75
2021/06/03 04:32:02;;;;;;;1999.90;999.90;;;17.40;99.90;;;;;;5007565;28;20194;-76
2021/06/03 04:34:27;;;;;;;1999.90;999.90;;;17.40;99.90;;;;;;5015770;28;20180;-76
2021/06/03 04:36:54;;;;;;;1999.90;999.90;;;17.40;99.90;;;;;;5015553;28;20245;-76
2021/06/03 04:39:20;;;;;;;1999.90;999.90;;;17.40;99.90;;;;;;5015995;28;20582;-76
2021/06/03 04:41:45;;;;;;;1999.90;999.90;;;17.40;99.90;;;;;;5015614;28;20240;-75
2021/06/03 04:44:11;;;;;;;1999.90;999.90;;;17.50;99.90;;;;;;5015654;28;20171;-75
2021/06/03 04:46:37;;;;;;;1999.90;999.90;;;17.50;99.90;;;;;;5012204;28;20232;-75
2021/06/03 04:49:02;;;;;;;1999.90;999.90;;;17.50;99.90;;;;;;5007525;28;20268;-75
2021/06/03 04:51:28;;;;;;;1999.90;999.90;;;17.60;99.90;;;;;;5014091;28;20179;-75
2021/06/03 04:53:54;;;;;;;1999.90;999.90;;;17.60;99.90;;;;;;5015621;28;20202;-77
2021/06/03 04:56:20;;;;;;;1999.90;999.90;;;17.40;99.90;;;;;;5014668;28;20620;-76
2021/06/03 04:58:45;;;;;;;1999.90;999.90;;;17.50;99.90;;;;;;5014059;28;20187;-76
2021/06/03 05:01:11;;;;;;;1999.90;999.90;;;17.50;99.90;;;;;;5010818;28;20175;-76
2021/06/03 05:03:37;;;;;;;1999.90;999.90;;;17.60;99.90;;;;;;5016683;28;20206;-75
2021/06/03 05:06:02;;;;;;;1999.90;999.90;;;17.50;99.90;;;;;;5015359;28;20194;-75
2021/06/03 05:08:28;;;;;;;1999.90;999.90;;;17.40;99.90;;;;;;5009415;28;20183;-76
2021/06/03 05:10:54;;;;;;;1999.90;999.90;;;17.50;99.90;;;;;;5004394;28;20218;-76
2021/06/03 05:13:19;;;;;;;1999.90;999.90;;;17.50;99.90;;;;;;5013731;28;20226;-75
2021/06/03 05:15:45;;;;;;;1999.90;999.90;;;17.50;99.90;;;;;;5015390;28;20195;-74
2021/06/03 05:18:11;;;;;;;1999.90;999.90;;;17.50;99.90;;;;;;5014982;28;20175;-76
2021/06/03 05:20:37;;;;;;;1999.90;999.90;;;17.50;99.90;;;;;;5011562;28;20237;-75
2021/06/03 05:23:03;;;;;;;1999.90;999.90;;;17.60;99.90;;;;;;5015076;28;20211;-75
2021/06/03 05:25:31;;;;;;;1999.90;999.90;;;17.60;99.90;;;;;;5014943;28;20631;-76
2021/06/03 05:27:57;;;;;;;1999.90;999.90;;;17.60;99.90;;;;;;5014972;28;20179;-76
2021/06/03 05:30:24;;;;;;;1999.90;999.90;;;17.70;99.90;;;;;;5027576;28;20174;-76
2021/06/03 05:32:51;;;;;;;1999.90;999.90;;;17.70;99.90;;;;;;5018728;28;20199;-76
2021/06/03 05:35:20;;;;;;;1999.90;999.90;;;17.80;99.90;;;;;;5014770;28;20184;-76
2021/06/03 05:37:46;;;;;;;1999.90;999.90;;;17.80;99.90;;;;;;5005329;28;20199;-75
2021/06/03 05:40:15;;;;;;;1999.90;999.90;;;17.90;99.90;;;;;;5006288;28;20183;-73
2021/06/03 05:42:41;;;;;;;1999.90;999.90;;;17.80;99.90;;;;;;5013228;28;20194;-74
2021/06/03 05:45:08;;;;;;;1999.90;999.90;;;17.70;99.90;;;;;;5013756;28;20237;-76
2021/06/03 05:47:35;;;;;;;1999.90;999.90;;;17.70;99.90;;;;;;5009188;28;20191;-76
2021/06/03 05:50:01;;;;;;;1999.90;999.90;;;17.80;99.90;;;;;;5013284;28;20186;-76
2021/06/03 05:52:28;;;;;;;1999.90;999.90;;;17.80;99.90;;;;;;5011530;28;20218;-76
2021/06/03 05:54:54;;;;;;;1999.90;999.90;;;17.90;99.90;;;;;;5012824;28;20603;-76
2021/06/03 05:57:19;;;;;;;1999.90;999.90;;;17.70;99.90;;;;;;5014123;28;20195;-76
2021/06/03 05:59:45;;;;;;;1999.90;999.90;;;17.70;99.90;;;;;;5014257;28;20629;-75
2021/06/03 06:02:18;;;;;;;1999.90;999.90;;;17.70;99.90;;;;;;5014113;28;20202;-76
2021/06/03 06:07:27;;;;;;;1999.90;999.90;;;17.90;99.90;;;;;;5014358;28;20194;-76
2021/06/03 06:09:53;;;;;;;1999.90;999.90;;;17.80;99.90;;;;;;5014054;28;20182;-76
2021/06/03 06:12:18;;;;;;;1999.90;999.90;;;17.90;99.90;;;;;;5014106;28;20214;-76
2021/06/03 06:14:44;;;;;;;1999.90;999.90;;;17.80;99.90;;;;;;5013890;28;20254;-76
2021/06/03 06:17:10;;;;;;;1999.90;999.90;;;17.90;99.90;;;;;;5013971;28;20249;-76
2021/06/03 06:19:37;;;;;;;1999.90;999.90;;;17.90;99.90;;;;;;5002033;28;20266;-76
2021/06/03 06:22:03;;;;;;;1999.90;999.90;;;17.80;99.90;;;;;;5007586;28;20202;-76
2021/06/03 06:24:29;;;;;;;1999.90;999.90;;;17.90;99.90;;;;;;5006872;28;20187;-76
2021/06/03 06:26:55;;;;;;;1999.90;999.90;;;17.90;99.90;;;;;;5003345;28;20639;-76
2021/06/03 06:29:20;;;;;;;1999.90;999.90;;;18.00;99.90;;;;;;4994346;28;20613;-76
2021/06/03 06:31:46;;;;;;;1999.90;999.90;;;17.90;99.90;;;;;;4999624;28;20187;-75
2021/06/03 06:34:12;;;;;;;1999.90;999.90;;;17.80;99.90;;;;;;4986508;28;20701;-76
2021/06/03 06:36:37;;;;;;;1999.90;999.90;;;17.80;99.90;;;;;;5011204;28;20571;-76
2021/06/03 06:39:04;;;;;;;1999.90;999.90;;;17.80;99.90;;;;;;5005780;28;20186;-76
2021/06/03 06:41:30;;;;;;;1999.90;999.90;;;17.70;99.90;;;;;;4997932;28;20175;-75
2021/06/03 06:43:56;;;;;;;1999.90;999.90;;;17.80;99.90;;;;;;5010574;28;20231;-75
2021/06/03 06:46:22;;;;;;;1999.90;999.90;;;17.80;99.90;;;;;;4989927;28;20194;-76
2021/06/03 06:48:48;;;;;;;1999.90;999.90;;;17.90;99.90;;;;;;5011871;28;20202;-75
2021/06/03 06:51:13;;;;;;;1999.90;999.90;;;17.90;99.90;;;;;;5010016;28;20242;-76
2021/06/03 06:53:39;;;;;;;1999.90;999.90;;;18.00;99.90;;;;;;5002030;28;20231;-76
2021/06/03 06:56:05;;;;;;;1999.90;999.90;;;17.90;99.90;;;;;;4993734;28;20293;-75
2021/06/03 06:58:30;;;;;;;1999.90;999.90;;;18.00;99.90;;;;;;5009848;28;20182;-75
2021/06/03 07:00:57;;;;;;;1999.90;999.90;;;18.10;99.90;;;;;;5010365;28;20190;-76
2021/06/03 07:03:23;;;;;;;1999.90;999.90;;;18.20;99.90;;;;;;5007490;28;20214;-72
2021/06/03 07:05:49;;;;;;;1999.90;999.90;;;18.10;99.90;;;;;;5009398;28;20210;-75
2021/06/03 07:08:15;;;;;;;1999.90;999.90;;;18.20;99.90;;;;;;5008091;28;20210;-76
2021/06/03 07:10:44;;;;;;;1999.90;999.90;;;18.20;99.90;;;;;;4997470;28;20175;-75
2021/06/03 07:13:09;;;;;;;1999.90;999.90;;;18.30;99.90;;;;;;4996414;28;20273;-76
2021/06/03 07:15:35;;;;;;;1999.90;999.90;;;18.40;99.90;;;;;;4976595;28;20612;-76
2021/06/03 07:18:01;;;;;;;1999.90;999.90;;;18.50;99.90;;;;;;4993841;28;20207;-76
2021/06/03 07:20:27;;;;;;;1999.90;999.90;;;18.60;99.90;;;;;;4980884;28;20180;-75
2021/06/03 07:23:00;;;;;;;1999.90;999.90;;;18.80;99.90;;;;;;5022712;23;20715;-78
2021/06/03 07:25:26;;;;;;;1999.90;999.90;;;18.90;99.90;;;;;;5033426;28;20205;-76
2021/06/03 07:27:52;;;;;;;1999.90;999.90;;;19.00;99.90;;;;;;5033794;28;20649;-78
2021/06/03 07:30:21;;;;;;;1999.90;999.90;;;19.10;99.90;;;;;;5033812;28;20179;-78
2021/06/03 07:32:48;;;;;;;1999.90;999.90;;;19.30;99.90;;;;;;5033102;28;20194;-78
2021/06/03 07:35:15;;;;;;;1999.90;999.90;;;19.40;99.90;;;;;;5033664;28;20233;-79
2021/06/03 07:37:43;;;;;;;1999.90;999.90;;;19.40;99.90;;;;;;5033658;28;20194;-79
2021/06/03 07:40:11;;;;;;;1999.90;999.90;;;19.50;99.90;;;;;;5033275;28;20254;-79
2021/06/03 07:42:39;;;;;;;1999.90;999.90;;;19.70;99.90;;;;;;5034292;28;20205;-78
2021/06/03 07:45:07;;;;;;;1999.90;999.90;;;19.80;99.90;;;;;;5032192;28;20541;-77
2021/06/03 07:47:34;;;;;;;1999.90;999.90;;;19.90;99.90;;;;;;5033161;28;20174;-78
2021/06/03 07:49:59;;;;;;;1999.90;999.90;;;19.90;99.90;;;;;;5029616;28;20228;-78
2021/06/03 07:52:25;;;;;;;1999.90;999.90;;;20.10;99.90;;;;;;5031489;28;20178;-78
2021/06/03 07:54:50;;;;;;;1999.90;999.90;;;20.30;99.90;;;;;;5029806;28;20182;-78
2021/06/03 07:57:16;;;;;;;1999.90;999.90;;;20.40;99.90;;;;;;5014081;28;20589;-78
2021/06/03 07:59:42;;;;;;;1999.90;999.90;;;20.50;99.90;;;;;;5012833;28;20171;-77
2021/06/03 08:02:08;;;;;;;1999.90;999.90;;;20.50;99.90;;;;;;5029999;28;20257;-77
2021/06/03 08:04:34;;;;;;;1999.90;999.90;;;20.60;99.90;;;;;;5029509;28;20197;-75
2021/06/03 08:07:00;;;;;;;1999.90;999.90;;;20.80;99.90;;;;;;5029576;28;20186;-78
2021/06/03 08:09:25;;;;;;;1999.90;999.90;;;20.80;99.90;;;;;;5029518;28;20178;-79
2021/06/03 08:11:51;;;;;;;1999.90;999.90;;;21.00;99.90;;;;;;5035468;28;20186;-77
2021/06/03 08:14:17;;;;;;;1999.90;999.90;;;21.10;99.90;;;;;;5028874;28;20205;-78
2021/06/03 08:16:42;;;;;;;1999.90;999.90;;;21.10;99.90;;;;;;5035020;28;20296;-77
2021/06/03 08:19:08;;;;;;;1999.90;999.90;;;21.20;99.90;;;;;;5041067;28;20170;-78
2021/06/03 08:21:34;;;;;;;1999.90;999.90;;;21.20;99.90;;;;;;5035684;28;20171;-78
2021/06/03 08:24:01;;;;;;;1999.90;999.90;;;21.20;99.90;;;;;;5035043;28;20214;-78
2021/06/03 08:26:28;;;;;;;1999.90;999.90;;;21.40;99.90;;;;;;5032279;28;20672;-78
2021/06/03 08:28:56;;;;;;;1999.90;999.90;;;21.40;99.90;;;;;;5034075;28;20701;-78
2021/06/03 08:31:22;;;;;;;1999.90;999.90;;;21.30;99.90;;;;;;5036038;28;20575;-78
2021/06/03 08:33:47;;;;;;;1999.90;999.90;;;21.40;99.90;;;;;;5035084;28;20253;-77
2021/06/03 08:36:13;;;;;;;1999.90;999.90;;;21.40;99.90;;;;;;5036594;28;20202;-78
2021/06/03 08:38:38;;;;;;;1999.90;999.90;;;21.40;99.90;;;;;;5035937;28;20193;-77
2021/06/03 08:41:05;;;;;;;1999.90;999.90;;;21.30;99.90;;;;;;5036487;28;20209;-78
2021/06/03 08:43:32;;;;;;;1999.90;999.90;;;21.40;99.90;;;;;;5035603;28;20196;-78
2021/06/03 08:46:00;;;;;;;1999.90;999.90;;;21.30;99.90;;;;;;5025876;28;20698;-77
2021/06/03 08:48:26;;;;;;;1999.90;999.90;;;21.50;99.90;;;;;;5035302;28;20289;-77
2021/06/03 08:50:59;;;;;;;1999.90;999.90;;;21.50;99.90;;;;;;5035457;28;20653;-78
2021/06/03 08:53:25;;;;;;;1999.90;999.90;;;21.60;99.90;;;;;;5030675;28;20265;-78
2021/06/03 08:58:36;;;;;;;1999.90;999.90;;;21.70;99.90;;;;;;5036562;28;20178;-77
2021/06/03 09:01:03;;;;;;;1999.90;999.90;;;22.00;99.90;;;;;;5035844;28;20206;-78
2021/06/03 09:03:31;;;;;;;1999.90;999.90;;;22.00;99.90;;;;;;5033202;28;20198;-77
2021/06/03 09:05:57;;;;;;;1999.90;999.90;;;22.10;99.90;;;;;;5034590;28;20174;-77
2021/06/03 09:08:25;;;;;;;1999.90;999.90;;;21.90;99.90;;;;;;5025934;28;20189;-77
2021/06/03 09:10:53;;;;;;;1999.90;999.90;;;22.00;99.90;;;;;;5033184;28;20182;-77
2021/06/03 09:13:20;;;;;;;1999.90;999.90;;;22.10;99.90;;;;;;5032350;28;20198;-77
2021/06/03 09:15:52;;;;;;;1999.90;999.90;;;22.40;99.90;;;;;;5030794;28;20174;-77
2021/06/03 09:18:30;;;;;;;1999.90;999.90;;;22.50;99.90;;;;;;5028475;28;20174;-77
2021/06/03 09:21:05;;;;;;;1999.90;999.90;;;22.50;99.90;;;;;;5036812;28;20232;-78
2021/06/03 09:23:33;;;;;;;1999.90;999.90;;;22.60;99.90;;;;;;5027744;28;20213;-77
2021/06/03 09:26:06;;;;;;;1999.90;999.90;;;22.70;99.90;;;;;;5023631;28;20641;-77
2021/06/03 09:28:41;;;;;;;1999.90;999.90;;;22.80;99.90;;;;;;5034946;28;20170;-77
2021/06/03 09:31:21;;;;;;;1999.90;999.90;;;22.90;99.90;;;;;;5025914;28;20174;-77
2021/06/03 09:33:48;;;;;;;1999.90;999.90;;;22.80;99.90;;;;;;5047653;28;20194;-77
2021/06/03 09:36:30;;;;;;;1999.90;999.90;;;22.90;99.90;;;;;;5031881;28;20356;-77
2021/06/03 09:39:00;;;;;;;1999.90;999.90;;;23.10;99.90;;;;;;5031958;28;20650;-77
2021/06/03 09:41:28;;;;;;;1999.90;999.90;;;23.20;99.90;;;;;;5030032;28;20174;-77
2021/06/03 09:44:11;;;;;;;1999.90;999.90;;;23.40;99.90;;;;;;5023355;28;20209;-77
2021/06/03 09:47:03;;;;;;;1999.90;999.90;;;23.40;99.90;;;;;;5028862;28;20186;-76
2021/06/03 09:49:38;;;;;;;1999.90;999.90;;;23.40;99.90;;;;;;5021875;28;20268;-77
2021/06/03 09:52:12;;;;;;;1999.90;999.90;;;23.40;99.90;;;;;;5018417;28;20714;-77
2021/06/03 09:54:39;;;;;;;1999.90;999.90;;;23.30;99.90;;;;;;5022181;28;20200;-77
2021/06/03 09:57:14;;;;;;;1999.90;999.90;;;23.40;99.90;;;;;;5034790;28;20190;-77
2021/06/03 09:59:58;;;;;;;1999.90;999.90;;;23.50;99.90;;;;;;5027666;28;20174;-77
2021/06/03 10:02:24;;;;;;;1999.90;999.90;;;23.70;99.90;;;;;;5035285;28;20197;-78
2021/06/03 10:04:52;;;;;;;1999.90;999.90;;;23.90;99.90;;;;;;5036736;28;20238;-78
2021/06/03 10:07:18;;;;;;;1999.90;999.90;;;24.00;99.90;;;;;;5035953;28;20254;-77
2021/06/03 10:09:44;;;;;;;1999.90;999.90;;;24.00;99.90;;;;;;5036685;28;20181;-78
2021/06/03 10:12:27;;;;;;;1999.90;999.90;;;24.10;99.90;;;;;;5029314;28;20175;-77
2021/06/03 10:14:59;;;;;;;1999.90;999.90;;;24.40;99.90;;;;;;5036670;28;20190;-78
2021/06/03 10:17:29;;;;;;;1999.90;999.90;;;24.60;99.90;;;;;;5031279;28;20236;-78
2021/06/03 10:20:01;;;;;;;1999.90;999.90;;;24.70;99.90;;;;;;5036786;28;20732;-78
2021/06/03 10:22:33;;;;;;;1999.90;999.90;;;24.80;99.90;;;;;;5037211;28;20190;-78
2021/06/03 10:25:10;;;;;;;1999.90;999.90;;;24.90;99.90;;;;;;5027719;28;20210;-78
2021/06/03 10:27:42;;;;;;;1999.90;999.90;;;24.90;99.90;;;;;;5036672;28;20178;-78
2021/06/03 10:30:15;;;;;;;1999.90;999.90;;;24.80;99.90;;;;;;5028488;28;20181;-78
2021/06/03 10:32:42;;;;;;;1999.90;999.90;;;25.00;99.90;;;;;;5035957;28;20217;-78
2021/06/03 10:35:13;;;;;;;1999.90;999.90;;;24.90;99.90;;;;;;5036561;28;20162;-78
2021/06/03 10:37:41;;;;;;;1999.90;999.90;;;25.10;99.90;;;;;;5033383;28;20664;-78
2021/06/03 10:40:11;;;;;;;1999.90;999.90;;;25.20;99.90;;;;;;5028731;28;20648;-78
2021/06/03 10:42:39;;;;;;;1999.90;999.90;;;25.40;99.90;;;;;;5036591;28;20201;-78
2021/06/03 10:45:06;;;;;;;1999.90;999.90;;;25.40;99.90;;;;;;5036052;28;20166;-78
2021/06/03 10:47:32;;;;;;;1999.90;999.90;;;25.60;99.90;;;;;;5036856;28;20197;-78
2021/06/03 10:50:02;;;;;;;1999.90;999.90;;;25.80;99.90;;;;;;5027204;28;20178;-78
2021/06/03 10:52:28;;;;;;;1999.90;999.90;;;25.60;99.90;;;;;;5036499;28;20354;-78
2021/06/03 10:54:58;;;;;;;1999.90;999.90;;;25.70;99.90;;;;;;5036260;28;20664;-78
2021/06/03 10:57:50;;;;;;;1999.90;999.90;;;25.80;99.90;;;;;;5036197;28;20649;-78
2021/06/03 11:00:32;;;;;;;1999.90;999.90;;;25.70;99.90;;;;;;5025629;28;20304;-78
2021/06/03 11:03:01;;;;;;;1999.90;999.90;;;25.90;99.90;;;;;;5036184;28;20684;-78
2021/06/03 11:05:30;;;;;;;1999.90;999.90;;;26.00;99.90;;;;;;5035893;28;20170;-78
2021/06/03 11:08:16;;;;;;;1999.90;999.90;;;25.80;99.90;;;;;;5026455;28;20174;-78
2021/06/03 11:10:42;;;;;;;1999.90;999.90;;;25.70;99.90;;;;;;5038495;28;20182;-78
2021/06/03 11:13:15;;;;;;;1999.90;999.90;;;25.80;99.90;;;;;;5035364;28;20568;-78
2021/06/03 11:16:02;;;;;;;1999.90;999.90;;;26.00;99.90;;;;;;5035635;28;20175;-78
2021/06/03 11:18:49;;;;;;;1999.90;999.90;;;25.90;99.90;;;;;;5035753;28;20517;-78
2021/06/03 11:21:34;;;;;;;1999.90;999.90;;;25.90;99.90;;;;;;5037276;28;20261;-78
2021/06/03 11:24:01;;;;;;;1999.90;999.90;;;25.90;99.90;;;;;;5018627;28;20769;-78
2021/06/03 11:26:39;;;;;;;1999.90;999.90;;;26.00;99.90;;;;;;5036074;28;20253;-78
2021/06/03 11:29:25;;;;;;;1999.90;999.90;;;26.10;99.90;;;;;;5028335;28;20170;-78
2021/06/03 11:32:15;;;;;;;1999.90;999.90;;;26.10;99.90;;;;;;5034765;28;20189;-78
2021/06/03 11:34:42;;;;;;;1999.90;999.90;;;26.30;99.90;;;;;;5024683;28;20187;-78
2021/06/03 11:37:16;;;;;;;1999.90;999.90;;;26.50;99.90;;;;;;5028553;28;20218;-78
2021/06/03 11:39:43;;;;;;;1999.90;999.90;;;26.60;99.90;;;;;;5035770;28;20530;-78
2021/06/03 11:42:18;;;;;;;1999.90;999.90;;;26.40;99.90;;;;;;5036474;28;20174;-77
2021/06/03 11:45:05;;;;;;;1999.90;999.90;;;26.30;99.90;;;;;;5040031;28;20174;-78
2021/06/03 11:47:55;;;;;;;1999.90;999.90;;;26.40;99.90;;;;;;5040299;28;20198;-77
2021/06/03 11:50:21;;;;;;;1999.90;999.90;;;26.60;99.90;;;;;;5039547;28;20182;-78
2021/06/03 11:52:53;;;;;;;1999.90;999.90;;;26.90;99.90;;;;;;5039790;28;20194;-78
2021/06/03 11:55:35;;;;;;;1999.90;999.90;;;27.10;99.90;;;;;;5033527;28;20676;-78
2021/06/03 11:58:19;;;;;;;1999.90;999.90;;;27.30;99.90;;;;;;5034478;28;20198;-78
2021/06/03 12:01:02;;;;;;;1999.90;999.90;;;27.20;99.90;;;;;;5039145;28;20194;-78
2021/06/03 12:03:41;;;;;;;1999.90;999.90;;;27.30;99.90;;;;;;5034259;28;20195;-78
2021/06/03 12:06:15;;;;;;;1999.90;999.90;;;27.40;99.90;;;;;;5039335;28;20181;-78
2021/06/03 12:08:48;;;;;;;1999.90;999.90;;;27.30;99.90;;;;;;5039855;28;20176;-78
2021/06/03 12:11:13;;;;;;;1999.90;999.90;;;27.40;99.90;;;;;;5032595;28;20170;-78